Matipo, Brazil
Current Conditions -  °F | °C
As of 6:00 AM on Thursday 27 Nov 2014 (Local Time) from SBIP Reporting Station
Broken Clouds Broken Clouds  
Wind Chill: 73°   Ceiling: 4500
Heat Index: 73°   Visibility: 6mi
Dew Point: 63°   Wind: 5mph
Humidity: 69%   Direction: 10°N
Pressure: 29.88"   Gusts: NA
Location:  20.28°S, 42.34°W
Report Text: SBIP 270800Z 01004KT 9999 SCT025 BKN045 23/17 Q1012
Loading
Personal Weather Stations






























Interactive Weather Map New forecast layout! Learn more

10-Day Weather Forecast

Advertisements
Track Severe Weather on mobile